sensor_id;sensor_type;location;lat;lon;timestamp;temperature;humidity
51902;DHT22;37929;53.218;6.548;2023-11-21T00:20:04;9.50;99.90
51902;DHT22;37929;53.218;6.548;2023-11-21T06:34:14;9.70;99.90
51902;DHT22;37929;53.218;6.548;2023-11-21T06:36:40;9.70;99.90
51902;DHT22;37929;53.218;6.548;2023-11-21T06:39:06;9.70;99.90
51902;DHT22;37929;53.218;6.548;2023-11-21T06:41:34;9.70;99.90
51902;DHT22;37929;53.218;6.548;2023-11-21T06:44:23;9.70;99.90
51902;DHT22;37929;53.218;6.548;2023-11-21T06:46:48;9.70;99.90
51902;DHT22;37929;53.218;6.548;2023-11-21T06:49:14;9.60;99.90
51902;DHT22;37929;53.218;6.548;2023-11-21T06:51:57;9.70;99.90
51902;DHT22;37929;53.218;6.548;2023-11-21T06:54:24;9.70;99.90
51902;DHT22;37929;53.218;6.548;2023-11-21T06:56:50;9.60;99.90
51902;DHT22;37929;53.218;6.548;2023-11-21T06:59:16;9.70;99.90
51902;DHT22;37929;53.218;6.548;2023-11-21T07:01:42;9.60;99.90
51902;DHT22;37929;53.218;6.548;2023-11-21T07:11:32;9.60;99.90
51902;DHT22;37929;53.218;6.548;2023-11-21T07:14:34;9.60;99.90
51902;DHT22;37929;53.218;6.548;2023-11-21T07:27:48;9.60;99.90
51902;DHT22;37929;53.218;6.548;2023-11-21T07:38:44;9.50;99.90
51902;DHT22;37929;53.218;6.548;2023-11-21T08:37:10;9.50;99.90
51902;DHT22;37929;53.218;6.548;2023-11-21T08:39:39;9.50;99.90
51902;DHT22;37929;53.218;6.548;2023-11-21T08:42:07;9.50;99.90
51902;DHT22;37929;53.218;6.548;2023-11-21T09:03:16;9.40;99.90
51902;DHT22;37929;53.218;6.548;2023-11-21T09:09:24;9.40;99.90
51902;DHT22;37929;53.218;6.548;2023-11-21T09:27:06;9.40;99.90
51902;DHT22;37929;53.218;6.548;2023-11-21T09:29:32;9.40;99.90
51902;DHT22;37929;53.218;6.548;2023-11-21T09:31:58;9.40;99.90
51902;DHT22;37929;53.218;6.548;2023-11-21T09:34:27;9.40;99.90
51902;DHT22;37929;53.218;6.548;2023-11-21T09:36:53;9.40;99.90
51902;DHT22;37929;53.218;6.548;2023-11-21T09:39:19;9.40;99.90
51902;DHT22;37929;53.218;6.548;2023-11-21T09:41:52;9.40;99.90
51902;DHT22;37929;53.218;6.548;2023-11-21T09:44:34;9.40;99.90
51902;DHT22;37929;53.218;6.548;2023-11-21T09:47:02;9.40;99.90
51902;DHT22;37929;53.218;6.548;2023-11-21T09:49:28;9.40;99.90
51902;DHT22;37929;53.218;6.548;2023-11-21T09:51:58;9.30;99.90
51902;DHT22;37929;53.218;6.548;2023-11-21T09:54:29;9.40;99.90
51902;DHT22;37929;53.218;6.548;2023-11-21T09:56:59;9.40;99.90
51902;DHT22;37929;53.218;6.548;2023-11-21T09:59:30;9.40;99.90
51902;DHT22;37929;53.218;6.548;2023-11-21T10:01:57;9.40;99.90
51902;DHT22;37929;53.218;6.548;2023-11-21T10:04:24;9.40;99.90
51902;DHT22;37929;53.218;6.548;2023-11-21T10:06:50;9.50;99.90
51902;DHT22;37929;53.218;6.548;2023-11-21T10:09:17;9.50;99.90
51902;DHT22;37929;53.218;6.548;2023-11-21T10:11:47;10.10;99.90
51902;DHT22;37929;53.218;6.548;2023-11-21T10:14:15;9.50;99.90
51902;DHT22;37929;53.218;6.548;2023-11-21T10:16:44;9.40;99.90
51902;DHT22;37929;53.218;6.548;2023-11-21T10:19:12;9.40;99.90
51902;DHT22;37929;53.218;6.548;2023-11-21T10:21:39;9.40;99.90
51902;DHT22;37929;53.218;6.548;2023-11-21T10:24:05;9.40;99.90
51902;DHT22;37929;53.218;6.548;2023-11-21T10:26:32;9.40;99.90
51902;DHT22;37929;53.218;6.548;2023-11-21T10:29:00;9.40;99.90
51902;DHT22;37929;53.218;6.548;2023-11-21T10:31:30;9.30;99.90
51902;DHT22;37929;53.218;6.548;2023-11-21T10:34:19;9.40;99.90
51902;DHT22;37929;53.218;6.548;2023-11-21T10:36:45;9.30;99.90
51902;DHT22;37929;53.218;6.548;2023-11-21T10:39:17;9.40;99.90
51902;DHT22;37929;53.218;6.548;2023-11-21T10:41:47;9.30;99.90
51902;DHT22;37929;53.218;6.548;2023-11-21T10:44:19;9.30;99.90
51902;DHT22;37929;53.218;6.548;2023-11-21T10:46:55;9.40;99.90
51902;DHT22;37929;53.218;6.548;2023-11-21T10:49:26;9.40;99.90
51902;DHT22;37929;53.218;6.548;2023-11-21T10:51:55;9.40;99.90
51902;DHT22;37929;53.218;6.548;2023-11-21T10:54:23;9.40;99.90
51902;DHT22;37929;53.218;6.548;2023-11-21T10:56:56;9.40;99.90
51902;DHT22;37929;53.218;6.548;2023-11-21T10:59:22;9.40;99.90
51902;DHT22;37929;53.218;6.548;2023-11-21T11:01:51;9.40;99.90
51902;DHT22;37929;53.218;6.548;2023-11-21T11:04:22;9.40;99.90
51902;DHT22;37929;53.218;6.548;2023-11-21T11:07:03;9.40;99.90
51902;DHT22;37929;53.218;6.548;2023-11-21T11:09:31;9.30;99.90
51902;DHT22;37929;53.218;6.548;2023-11-21T11:12:02;9.30;99.90
51902;DHT22;37929;53.218;6.548;2023-11-21T11:14:28;9.40;99.90
51902;DHT22;37929;53.218;6.548;2023-11-21T11:16:54;9.30;99.90
51902;DHT22;37929;53.218;6.548;2023-11-21T11:19:28;9.40;99.90
51902;DHT22;37929;53.218;6.548;2023-11-21T11:27:44;9.40;99.90
51902;DHT22;37929;53.218;6.548;2023-11-21T11:38:38;9.60;99.90
51902;DHT22;37929;53.218;6.548;2023-11-21T11:41:05;9.60;99.90
51902;DHT22;37929;53.218;6.548;2023-11-21T11:43:32;9.60;99.90
51902;DHT22;37929;53.218;6.548;2023-11-21T11:46:10;9.60;99.90
51902;DHT22;37929;53.218;6.548;2023-11-21T11:48:39;9.60;99.90
51902;DHT22;37929;53.218;6.548;2023-11-21T11:51:10;9.60;99.90
51902;DHT22;37929;53.218;6.548;2023-11-21T11:53:41;9.60;99.90
51902;DHT22;37929;53.218;6.548;2023-11-21T11:58:55;9.60;99.90
51902;DHT22;37929;53.218;6.548;2023-11-21T12:01:24;9.70;99.90
51902;DHT22;37929;53.218;6.548;2023-11-21T12:04:23;9.80;99.90
51902;DHT22;37929;53.218;6.548;2023-11-21T12:07:03;9.90;99.90
51902;DHT22;37929;53.218;6.548;2023-11-21T12:09:31;9.90;99.90
51902;DHT22;37929;53.218;6.548;2023-11-21T12:11:57;9.90;99.90
51902;DHT22;37929;53.218;6.548;2023-11-21T12:14:27;9.90;99.90
51902;DHT22;37929;53.218;6.548;2023-11-21T12:16:53;9.90;99.90
51902;DHT22;37929;53.218;6.548;2023-11-21T12:19:19;9.90;99.90
51902;DHT22;37929;53.218;6.548;2023-11-21T12:21:46;9.90;99.90
51902;DHT22;37929;53.218;6.548;2023-11-21T12:24:14;10.00;99.90
51902;DHT22;37929;53.218;6.548;2023-11-21T12:26:42;10.00;99.90
51902;DHT22;37929;53.218;6.548;2023-11-21T12:29:11;9.90;99.90
51902;DHT22;37929;53.218;6.548;2023-11-21T12:31:37;9.90;99.90
51902;DHT22;37929;53.218;6.548;2023-11-21T12:34:04;10.00;99.90
51902;DHT22;37929;53.218;6.548;2023-11-21T12:36:32;10.00;99.90
51902;DHT22;37929;53.218;6.548;2023-11-21T12:39:01;10.00;99.90
51902;DHT22;37929;53.218;6.548;2023-11-21T12:41:28;9.80;99.90
51902;DHT22;37929;53.218;6.548;2023-11-21T12:43:55;10.00;99.90
51902;DHT22;37929;53.218;6.548;2023-11-21T12:46:21;9.90;99.90
51902;DHT22;37929;53.218;6.548;2023-11-21T12:48:49;10.00;99.90
51902;DHT22;37929;53.218;6.548;2023-11-21T12:51:15;10.00;99.90
51902;DHT22;37929;53.218;6.548;2023-11-21T12:53:42;10.00;99.90
51902;DHT22;37929;53.218;6.548;2023-11-21T12:56:11;10.00;99.90
51902;DHT22;37929;53.218;6.548;2023-11-21T12:58:39;10.00;99.90
51902;DHT22;37929;53.218;6.548;2023-11-21T13:01:08;10.00;99.90
51902;DHT22;37929;53.218;6.548;2023-11-21T13:03:38;10.00;99.90
51902;DHT22;37929;53.218;6.548;2023-11-21T13:06:06;10.00;99.90
51902;DHT22;37929;53.218;6.548;2023-11-21T13:08:33;9.90;99.90
51902;DHT22;37929;53.218;6.548;2023-11-21T13:10:59;9.90;99.90
51902;DHT22;37929;53.218;6.548;2023-11-21T13:13:28;9.90;99.90
51902;DHT22;37929;53.218;6.548;2023-11-21T13:16:01;9.80;99.90
51902;DHT22;37929;53.218;6.548;2023-11-21T13:18:30;9.70;99.90
51902;DHT22;37929;53.218;6.548;2023-11-21T13:21:04;9.70;99.90
51902;DHT22;37929;53.218;6.548;2023-11-21T13:23:38;9.70;99.90
51902;DHT22;37929;53.218;6.548;2023-11-21T13:26:04;9.70;99.90
51902;DHT22;37929;53.218;6.548;2023-11-21T13:28:31;9.70;99.90
51902;DHT22;37929;53.218;6.548;2023-11-21T13:30:59;9.70;99.90
51902;DHT22;37929;53.218;6.548;2023-11-21T13:33:43;9.70;99.90
51902;DHT22;37929;53.218;6.548;2023-11-21T13:36:15;9.70;99.90
51902;DHT22;37929;53.218;6.548;2023-11-21T13:38:49;9.70;99.90
51902;DHT22;37929;53.218;6.548;2023-11-21T13:41:16;9.70;99.90
51902;DHT22;37929;53.218;6.548;2023-11-21T13:43:44;9.70;99.90
51902;DHT22;37929;53.218;6.548;2023-11-21T13:46:16;9.70;99.90
51902;DHT22;37929;53.218;6.548;2023-11-21T13:48:48;9.60;99.90
51902;DHT22;37929;53.218;6.548;2023-11-21T13:51:24;9.60;99.90
51902;DHT22;37929;53.218;6.548;2023-11-21T13:54:03;9.60;99.90
51902;DHT22;37929;53.218;6.548;2023-11-21T13:56:37;9.60;99.90
51902;DHT22;37929;53.218;6.548;2023-11-21T13:59:04;9.60;99.90
51902;DHT22;37929;53.218;6.548;2023-11-21T14:01:42;9.50;99.90
51902;DHT22;37929;53.218;6.548;2023-11-21T14:04:21;9.50;99.90
51902;DHT22;37929;53.218;6.548;2023-11-21T14:07:01;9.50;99.90
51902;DHT22;37929;53.218;6.548;2023-11-21T14:09:42;9.50;99.90
51902;DHT22;37929;53.218;6.548;2023-11-21T14:12:11;9.50;99.90
51902;DHT22;37929;53.218;6.548;2023-11-21T14:14:38;9.50;99.90
51902;DHT22;37929;53.218;6.548;2023-11-21T14:17:05;9.50;99.90
51902;DHT22;37929;53.218;6.548;2023-11-21T14:19:32;9.50;99.90
51902;DHT22;37929;53.218;6.548;2023-11-21T14:22:00;9.50;99.90
51902;DHT22;37929;53.218;6.548;2023-11-21T14:24:29;9.50;99.90
51902;DHT22;37929;53.218;6.548;2023-11-21T14:26:57;9.60;99.90
51902;DHT22;37929;53.218;6.548;2023-11-21T14:29:23;9.40;99.90
51902;DHT22;37929;53.218;6.548;2023-11-21T14:31:52;9.40;99.90
51902;DHT22;37929;53.218;6.548;2023-11-21T14:34:22;9.40;99.90
51902;DHT22;37929;53.218;6.548;2023-11-21T14:36:49;9.40;99.90
51902;DHT22;37929;53.218;6.548;2023-11-21T14:39:16;9.70;99.90
51902;DHT22;37929;53.218;6.548;2023-11-21T14:41:49;9.30;99.90
51902;DHT22;37929;53.218;6.548;2023-11-21T14:44:15;9.30;99.90
51902;DHT22;37929;53.218;6.548;2023-11-21T14:46:41;9.30;99.90
51902;DHT22;37929;53.218;6.548;2023-11-21T14:49:12;9.30;99.90
51902;DHT22;37929;53.218;6.548;2023-11-21T14:51:51;9.30;99.90
51902;DHT22;37929;53.218;6.548;2023-11-21T14:54:32;9.30;99.90
51902;DHT22;37929;53.218;6.548;2023-11-21T14:57:11;9.30;99.90
51902;DHT22;37929;53.218;6.548;2023-11-21T14:59:46;9.30;99.90
51902;DHT22;37929;53.218;6.548;2023-11-21T15:02:23;9.30;99.90
51902;DHT22;37929;53.218;6.548;2023-11-21T15:05:09;9.20;99.90
51902;DHT22;37929;53.218;6.548;2023-11-21T15:07:44;9.30;99.90
51902;DHT22;37929;53.218;6.548;2023-11-21T15:10:10;9.20;99.90
51902;DHT22;37929;53.218;6.548;2023-11-21T15:12:38;9.20;99.90
51902;DHT22;37929;53.218;6.548;2023-11-21T15:15:08;9.20;99.90
51902;DHT22;37929;53.218;6.548;2023-11-21T15:17:36;9.20;99.90
51902;DHT22;37929;53.218;6.548;2023-11-21T15:20:03;9.20;99.90
51902;DHT22;37929;53.218;6.548;2023-11-21T15:22:32;9.10;99.90
51902;DHT22;37929;53.218;6.548;2023-11-21T15:24:59;9.10;99.90
51902;DHT22;37929;53.218;6.548;2023-11-21T15:27:30;9.10;99.90
51902;DHT22;37929;53.218;6.548;2023-11-21T15:29:55;9.10;99.90
51902;DHT22;37929;53.218;6.548;2023-11-21T15:32:21;9.10;99.90
51902;DHT22;37929;53.218;6.548;2023-11-21T15:34:48;9.10;99.90
51902;DHT22;37929;53.218;6.548;2023-11-21T15:37:14;9.00;99.90
51902;DHT22;37929;53.218;6.548;2023-11-21T15:39:40;9.00;99.90
51902;DHT22;37929;53.218;6.548;2023-11-21T15:42:06;9.00;99.90
51902;DHT22;37929;53.218;6.548;2023-11-21T15:44:33;9.00;99.90
51902;DHT22;37929;53.218;6.548;2023-11-21T15:46:59;8.90;99.90
51902;DHT22;37929;53.218;6.548;2023-11-21T15:49:25;8.90;99.90
51902;DHT22;37929;53.218;6.548;2023-11-21T15:51:53;8.90;99.90
51902;DHT22;37929;53.218;6.548;2023-11-21T15:54:20;8.80;99.90
51902;DHT22;37929;53.218;6.548;2023-11-21T15:56:47;8.70;99.90
51902;DHT22;37929;53.218;6.548;2023-11-21T15:59:14;8.90;99.90
51902;DHT22;37929;53.218;6.548;2023-11-21T16:01:40;8.60;99.90
51902;DHT22;37929;53.218;6.548;2023-11-21T16:04:14;8.60;99.90
51902;DHT22;37929;53.218;6.548;2023-11-21T16:06:45;8.50;99.90
51902;DHT22;37929;53.218;6.548;2023-11-21T16:09:14;8.50;99.90
51902;DHT22;37929;53.218;6.548;2023-11-21T16:11:54;8.50;99.90
51902;DHT22;37929;53.218;6.548;2023-11-21T16:14:26;8.50;99.90
51902;DHT22;37929;53.218;6.548;2023-11-21T16:16:58;8.40;99.90
51902;DHT22;37929;53.218;6.548;2023-11-21T16:19:24;8.40;99.90
51902;DHT22;37929;53.218;6.548;2023-11-21T16:21:50;8.20;99.90
51902;DHT22;37929;53.218;6.548;2023-11-21T16:24:16;8.20;99.90
51902;DHT22;37929;53.218;6.548;2023-11-21T16:26:45;8.20;99.90
51902;DHT22;37929;53.218;6.548;2023-11-21T16:29:12;8.20;99.90
51902;DHT22;37929;53.218;6.548;2023-11-21T16:31:38;8.20;99.90
51902;DHT22;37929;53.218;6.548;2023-11-21T16:34:16;8.20;99.90
51902;DHT22;37929;53.218;6.548;2023-11-21T16:36:42;8.20;99.90
51902;DHT22;37929;53.218;6.548;2023-11-21T16:39:09;8.20;99.90
51902;DHT22;37929;53.218;6.548;2023-11-21T16:41:42;8.20;99.90
51902;DHT22;37929;53.218;6.548;2023-11-21T16:44:14;8.10;99.90
51902;DHT22;37929;53.218;6.548;2023-11-21T16:46:44;8.20;99.90
51902;DHT22;37929;53.218;6.548;2023-11-21T16:49:11;8.10;99.90
51902;DHT22;37929;53.218;6.548;2023-11-21T16:51:37;8.10;99.90
51902;DHT22;37929;53.218;6.548;2023-11-21T16:54:04;8.10;99.90
51902;DHT22;37929;53.218;6.548;2023-11-21T16:56:30;8.10;99.90
51902;DHT22;37929;53.218;6.548;2023-11-21T16:58:56;8.10;99.90
51902;DHT22;37929;53.218;6.548;2023-11-21T17:01:23;8.10;99.90
51902;DHT22;37929;53.218;6.548;2023-11-21T17:03:51;8.10;99.90
51902;DHT22;37929;53.218;6.548;2023-11-21T17:06:18;8.00;99.90
51902;DHT22;37929;53.218;6.548;2023-11-21T17:08:44;8.10;99.90
51902;DHT22;37929;53.218;6.548;2023-11-21T17:11:11;8.00;99.90
51902;DHT22;37929;53.218;6.548;2023-11-21T17:13:40;8.00;99.90
51902;DHT22;37929;53.218;6.548;2023-11-21T17:16:07;8.00;99.90
51902;DHT22;37929;53.218;6.548;2023-11-21T17:18:32;8.00;99.90
51902;DHT22;37929;53.218;6.548;2023-11-21T17:20:58;8.20;99.90
51902;DHT22;37929;53.218;6.548;2023-11-21T17:23:24;8.00;99.90
51902;DHT22;37929;53.218;6.548;2023-11-21T17:25:50;8.00;99.90
51902;DHT22;37929;53.218;6.548;2023-11-21T17:28:16;8.50;99.90
51902;DHT22;37929;53.218;6.548;2023-11-21T17:30:42;7.90;99.90
51902;DHT22;37929;53.218;6.548;2023-11-21T17:33:08;7.90;99.90
51902;DHT22;37929;53.218;6.548;2023-11-21T17:35:34;7.90;99.90
51902;DHT22;37929;53.218;6.548;2023-11-21T17:38:00;7.90;99.90
51902;DHT22;37929;53.218;6.548;2023-11-21T17:40:27;7.90;99.90
51902;DHT22;37929;53.218;6.548;2023-11-21T17:42:54;7.90;99.90
51902;DHT22;37929;53.218;6.548;2023-11-21T17:45:20;7.90;99.90
51902;DHT22;37929;53.218;6.548;2023-11-21T17:47:49;7.90;99.90
51902;DHT22;37929;53.218;6.548;2023-11-21T17:50:14;8.90;99.90
51902;DHT22;37929;53.218;6.548;2023-11-21T17:52:40;8.00;99.90
51902;DHT22;37929;53.218;6.548;2023-11-21T17:55:06;8.00;99.90
51902;DHT22;37929;53.218;6.548;2023-11-21T17:57:35;8.00;99.90
51902;DHT22;37929;53.218;6.548;2023-11-21T18:00:02;8.00;99.90
51902;DHT22;37929;53.218;6.548;2023-11-21T18:02:35;7.90;99.90
51902;DHT22;37929;53.218;6.548;2023-11-21T18:05:03;7.90;99.90
51902;DHT22;37929;53.218;6.548;2023-11-21T18:07:34;7.90;99.90
51902;DHT22;37929;53.218;6.548;2023-11-21T18:10:00;7.90;99.90
51902;DHT22;37929;53.218;6.548;2023-11-21T18:12:25;7.90;99.90
51902;DHT22;37929;53.218;6.548;2023-11-21T18:14:51;7.90;99.90
51902;DHT22;37929;53.218;6.548;2023-11-21T18:17:19;7.80;99.90
51902;DHT22;37929;53.218;6.548;2023-11-21T18:19:49;7.80;99.90
51902;DHT22;37929;53.218;6.548;2023-11-21T18:22:20;8.10;99.90
51902;DHT22;37929;53.218;6.548;2023-11-21T18:24:47;7.90;99.90
51902;DHT22;37929;53.218;6.548;2023-11-21T18:27:14;7.90;99.90
51902;DHT22;37929;53.218;6.548;2023-11-21T18:29:39;8.00;99.90
51902;DHT22;37929;53.218;6.548;2023-11-21T18:32:05;7.90;99.90
51902;DHT22;37929;53.218;6.548;2023-11-21T18:34:35;7.90;99.90
51902;DHT22;37929;53.218;6.548;2023-11-21T18:37:06;7.90;99.90
51902;DHT22;37929;53.218;6.548;2023-11-21T18:39:35;7.90;99.90
51902;DHT22;37929;53.218;6.548;2023-11-21T18:42:01;8.20;99.90
51902;DHT22;37929;53.218;6.548;2023-11-21T18:44:27;7.90;99.90
51902;DHT22;37929;53.218;6.548;2023-11-21T18:46:53;8.50;99.90
51902;DHT22;37929;53.218;6.548;2023-11-21T18:49:18;8.00;99.90
51902;DHT22;37929;53.218;6.548;2023-11-21T18:51:47;8.00;99.90
51902;DHT22;37929;53.218;6.548;2023-11-21T18:54:22;8.00;99.90
51902;DHT22;37929;53.218;6.548;2023-11-21T18:56:48;8.00;99.90
51902;DHT22;37929;53.218;6.548;2023-11-21T18:59:15;7.90;99.90
51902;DHT22;37929;53.218;6.548;2023-11-21T19:01:43;7.90;99.90
51902;DHT22;37929;53.218;6.548;2023-11-21T19:04:09;8.00;99.90
51902;DHT22;37929;53.218;6.548;2023-11-21T19:06:36;8.00;99.90
51902;DHT22;37929;53.218;6.548;2023-11-21T19:09:02;8.00;99.90
51902;DHT22;37929;53.218;6.548;2023-11-21T19:11:29;8.00;99.90
51902;DHT22;37929;53.218;6.548;2023-11-21T19:13:55;7.90;99.90
51902;DHT22;37929;53.218;6.548;2023-11-21T19:16:20;7.90;99.90
51902;DHT22;37929;53.218;6.548;2023-11-21T19:18:49;8.00;99.90
51902;DHT22;37929;53.218;6.548;2023-11-21T19:21:16;7.90;99.90
51902;DHT22;37929;53.218;6.548;2023-11-21T19:23:43;7.90;99.90
51902;DHT22;37929;53.218;6.548;2023-11-21T19:26:09;7.90;99.90
51902;DHT22;37929;53.218;6.548;2023-11-21T19:28:35;8.10;99.90
51902;DHT22;37929;53.218;6.548;2023-11-21T19:31:01;7.80;99.90
51902;DHT22;37929;53.218;6.548;2023-11-21T19:33:29;7.80;99.90
51902;DHT22;37929;53.218;6.548;2023-11-21T19:35:55;7.70;99.90
51902;DHT22;37929;53.218;6.548;2023-11-21T19:38:21;8.30;99.90
51902;DHT22;37929;53.218;6.548;2023-11-21T19:40:51;7.60;99.90
51902;DHT22;37929;53.218;6.548;2023-11-21T19:43:17;7.60;99.90
51902;DHT22;37929;53.218;6.548;2023-11-21T19:45:43;7.50;99.90
51902;DHT22;37929;53.218;6.548;2023-11-21T19:48:09;7.50;99.90
51902;DHT22;37929;53.218;6.548;2023-11-21T19:50:35;7.50;99.90
51902;DHT22;37929;53.218;6.548;2023-11-21T19:53:07;7.50;99.90
51902;DHT22;37929;53.218;6.548;2023-11-21T19:55:34;7.50;99.90
51902;DHT22;37929;53.218;6.548;2023-11-21T19:57:59;7.60;99.90
51902;DHT22;37929;53.218;6.548;2023-11-21T20:00:27;7.50;99.90
51902;DHT22;37929;53.218;6.548;2023-11-21T20:02:55;8.70;99.90
51902;DHT22;37929;53.218;6.548;2023-11-21T20:05:20;7.50;99.90
51902;DHT22;37929;53.218;6.548;2023-11-21T20:07:46;7.50;99.90
51902;DHT22;37929;53.218;6.548;2023-11-21T20:10:13;8.90;99.90
51902;DHT22;37929;53.218;6.548;2023-11-21T20:12:39;7.40;99.90
51902;DHT22;37929;53.218;6.548;2023-11-21T20:15:05;7.40;99.90
51902;DHT22;37929;53.218;6.548;2023-11-21T20:17:32;7.40;99.90
51902;DHT22;37929;53.218;6.548;2023-11-21T20:19:58;7.40;99.90
51902;DHT22;37929;53.218;6.548;2023-11-21T20:22:24;7.40;99.90
51902;DHT22;37929;53.218;6.548;2023-11-21T20:24:50;7.40;99.90
51902;DHT22;37929;53.218;6.548;2023-11-21T20:27:16;7.80;99.90
51902;DHT22;37929;53.218;6.548;2023-11-21T20:29:43;7.30;99.90
51902;DHT22;37929;53.218;6.548;2023-11-21T20:32:10;7.30;99.90
51902;DHT22;37929;53.218;6.548;2023-11-21T20:34:37;7.30;99.90
51902;DHT22;37929;53.218;6.548;2023-11-21T20:37:04;7.30;99.90
51902;DHT22;37929;53.218;6.548;2023-11-21T20:39:32;7.30;99.90
51902;DHT22;37929;53.218;6.548;2023-11-21T20:42:01;7.30;99.90
51902;DHT22;37929;53.218;6.548;2023-11-21T20:44:27;7.30;99.90
51902;DHT22;37929;53.218;6.548;2023-11-21T20:46:53;7.40;99.90
51902;DHT22;37929;53.218;6.548;2023-11-21T20:49:19;7.40;99.90
51902;DHT22;37929;53.218;6.548;2023-11-21T20:51:45;7.40;99.90
51902;DHT22;37929;53.218;6.548;2023-11-21T20:54:11;7.30;99.90
51902;DHT22;37929;53.218;6.548;2023-11-21T20:56:41;7.60;99.90
51902;DHT22;37929;53.218;6.548;2023-11-21T20:59:07;7.40;99.90
51902;DHT22;37929;53.218;6.548;2023-11-21T21:01:34;7.30;99.90
51902;DHT22;37929;53.218;6.548;2023-11-21T21:04:00;7.40;99.90
51902;DHT22;37929;53.218;6.548;2023-11-21T21:06:29;7.40;99.90
51902;DHT22;37929;53.218;6.548;2023-11-21T21:08:56;7.40;99.90
51902;DHT22;37929;53.218;6.548;2023-11-21T21:11:24;7.70;99.90
51902;DHT22;37929;53.218;6.548;2023-11-21T21:13:52;7.30;99.90
51902;DHT22;37929;53.218;6.548;2023-11-21T21:16:21;7.30;99.90
51902;DHT22;37929;53.218;6.548;2023-11-21T21:18:52;7.30;99.90
51902;DHT22;37929;53.218;6.548;2023-11-21T21:21:18;7.30;99.90
51902;DHT22;37929;53.218;6.548;2023-11-21T21:23:45;8.50;99.90
51902;DHT22;37929;53.218;6.548;2023-11-21T21:26:11;7.50;99.90
51902;DHT22;37929;53.218;6.548;2023-11-21T21:28:36;7.30;99.90
51902;DHT22;37929;53.218;6.548;2023-11-21T21:31:02;7.70;99.90
51902;DHT22;37929;53.218;6.548;2023-11-21T21:33:28;7.30;99.90
51902;DHT22;37929;53.218;6.548;2023-11-21T21:35:54;7.30;99.90
51902;DHT22;37929;53.218;6.548;2023-11-21T21:38:20;7.30;99.90
51902;DHT22;37929;53.218;6.548;2023-11-21T21:40:46;7.60;99.90
51902;DHT22;37929;53.218;6.548;2023-11-21T21:43:13;7.30;99.90
51902;DHT22;37929;53.218;6.548;2023-11-21T21:45:38;7.30;99.90
51902;DHT22;37929;53.218;6.548;2023-11-21T21:48:05;7.30;99.90
51902;DHT22;37929;53.218;6.548;2023-11-21T21:50:31;8.30;99.90
51902;DHT22;37929;53.218;6.548;2023-11-21T21:52:57;8.30;99.90
51902;DHT22;37929;53.218;6.548;2023-11-21T21:55:23;7.40;99.90
51902;DHT22;37929;53.218;6.548;2023-11-21T21:57:49;7.30;99.90
51902;DHT22;37929;53.218;6.548;2023-11-21T22:00:15;7.30;99.90
51902;DHT22;37929;53.218;6.548;2023-11-21T22:02:41;7.30;99.90
51902;DHT22;37929;53.218;6.548;2023-11-21T22:05:11;7.40;99.90
51902;DHT22;37929;53.218;6.548;2023-11-21T22:07:41;7.40;99.90
51902;DHT22;37929;53.218;6.548;2023-11-21T22:10:10;7.30;99.90
51902;DHT22;37929;53.218;6.548;2023-11-21T22:12:36;7.30;99.90
51902;DHT22;37929;53.218;6.548;2023-11-21T22:15:03;7.60;99.90
51902;DHT22;37929;53.218;6.548;2023-11-21T22:17:30;7.20;99.90
51902;DHT22;37929;53.218;6.548;2023-11-21T22:19:56;7.20;99.90
51902;DHT22;37929;53.218;6.548;2023-11-21T22:22:23;7.20;99.90
51902;DHT22;37929;53.218;6.548;2023-11-21T22:24:50;7.30;99.90
51902;DHT22;37929;53.218;6.548;2023-11-21T22:27:17;7.30;99.90
51902;DHT22;37929;53.218;6.548;2023-11-21T22:29:44;7.20;99.90
51902;DHT22;37929;53.218;6.548;2023-11-21T22:32:10;7.20;99.90
51902;DHT22;37929;53.218;6.548;2023-11-21T22:34:36;7.20;99.90
51902;DHT22;37929;53.218;6.548;2023-11-21T22:37:05;7.20;99.90
51902;DHT22;37929;53.218;6.548;2023-11-21T22:39:31;7.20;99.90
51902;DHT22;37929;53.218;6.548;2023-11-21T22:41:58;7.20;99.90
51902;DHT22;37929;53.218;6.548;2023-11-21T22:44:23;7.20;99.90
51902;DHT22;37929;53.218;6.548;2023-11-21T22:46:50;7.20;99.90
51902;DHT22;37929;53.218;6.548;2023-11-21T22:49:16;7.10;99.90
51902;DHT22;37929;53.218;6.548;2023-11-21T22:51:42;7.10;99.90
51902;DHT22;37929;53.218;6.548;2023-11-21T22:54:10;7.10;99.90
51902;DHT22;37929;53.218;6.548;2023-11-21T22:56:37;7.10;99.90
51902;DHT22;37929;53.218;6.548;2023-11-21T22:59:06;7.00;99.90
51902;DHT22;37929;53.218;6.548;2023-11-21T23:01:32;7.20;99.90
51902;DHT22;37929;53.218;6.548;2023-11-21T23:04:00;7.00;99.90
51902;DHT22;37929;53.218;6.548;2023-11-21T23:06:27;7.00;99.90
51902;DHT22;37929;53.218;6.548;2023-11-21T23:08:54;7.00;99.90
51902;DHT22;37929;53.218;6.548;2023-11-21T23:11:20;7.10;99.90
51902;DHT22;37929;53.218;6.548;2023-11-21T23:13:46;7.00;99.90
51902;DHT22;37929;53.218;6.548;2023-11-21T23:16:12;7.00;99.90
51902;DHT22;37929;53.218;6.548;2023-11-21T23:18:43;6.90;99.90
51902;DHT22;37929;53.218;6.548;2023-11-21T23:21:12;6.90;99.90
51902;DHT22;37929;53.218;6.548;2023-11-21T23:23:38;6.90;99.90
51902;DHT22;37929;53.218;6.548;2023-11-21T23:26:06;6.80;99.90
51902;DHT22;37929;53.218;6.548;2023-11-21T23:28:32;6.80;99.90
51902;DHT22;37929;53.218;6.548;2023-11-21T23:30:58;6.70;99.90
51902;DHT22;37929;53.218;6.548;2023-11-21T23:33:24;6.70;99.90
51902;DHT22;37929;53.218;6.548;2023-11-21T23:35:56;6.70;99.90
51902;DHT22;37929;53.218;6.548;2023-11-21T23:38:22;6.60;99.90
51902;DHT22;37929;53.218;6.548;2023-11-21T23:40:48;6.60;99.90
51902;DHT22;37929;53.218;6.548;2023-11-21T23:43:14;6.60;99.90
51902;DHT22;37929;53.218;6.548;2023-11-21T23:45:40;6.50;99.90
51902;DHT22;37929;53.218;6.548;2023-11-21T23:48:06;6.50;99.90
51902;DHT22;37929;53.218;6.548;2023-11-21T23:50:32;6.60;99.90
51902;DHT22;37929;53.218;6.548;2023-11-21T23:52:58;6.60;99.90
51902;DHT22;37929;53.218;6.548;2023-11-21T23:55:23;6.70;99.90
51902;DHT22;37929;53.218;6.548;2023-11-21T23:57:49;6.60;99.90
